createdAt,value
2018-07-12T00:01:04.828Z,0
2018-07-12T00:02:13.472Z,0
2018-07-12T00:03:22.121Z,0
2018-07-12T00:04:30.757Z,0
2018-07-12T00:05:39.411Z,0
2018-07-12T00:06:48.055Z,0
2018-07-12T00:07:56.965Z,0
2018-07-12T00:09:05.602Z,0
2018-07-12T00:10:14.251Z,0
2018-07-12T00:11:22.898Z,0
2018-07-12T00:12:31.543Z,0
2018-07-12T00:13:40.189Z,0
2018-07-12T00:14:48.826Z,0
2018-07-12T00:15:57.475Z,0
2018-07-12T00:17:06.121Z,0
2018-07-12T00:18:14.774Z,0
2018-07-12T00:19:23.414Z,0
2018-07-12T00:20:32.063Z,0
2018-07-12T00:21:40.713Z,0
2018-07-12T00:22:49.894Z,0
2018-07-12T00:23:58.799Z,0
2018-07-12T00:25:07.446Z,0
2018-07-12T00:26:16.088Z,0
2018-07-12T00:27:24.738Z,0
2018-07-12T00:28:33.381Z,0
2018-07-12T00:29:42.028Z,0
2018-07-12T00:30:50.672Z,0
2018-07-12T00:31:59.315Z,0
2018-07-12T00:33:07.966Z,0
2018-07-12T00:34:16.611Z,0
2018-07-12T00:35:25.256Z,0
2018-07-12T00:36:33.898Z,0
2018-07-12T00:37:42.542Z,0
2018-07-12T00:38:51.189Z,0
2018-07-12T00:39:59.833Z,0
2018-07-12T00:41:08.473Z,0
2018-07-12T00:42:17.125Z,0
2018-07-12T00:43:25.771Z,0
2018-07-12T00:44:34.943Z,0
2018-07-12T00:45:43.845Z,0
2018-07-12T00:46:52.763Z,0
2018-07-12T00:48:01.407Z,0
2018-07-12T00:49:10.055Z,0
2018-07-12T00:50:18.703Z,0
2018-07-12T00:51:27.343Z,0
2018-07-12T00:52:35.989Z,0
2018-07-12T00:53:44.894Z,0
2018-07-12T00:54:53.543Z,0
2018-07-12T00:56:02.185Z,0
2018-07-12T00:57:11.103Z,0
2018-07-12T00:58:19.746Z,0
2018-07-12T00:59:28.395Z,0
2018-07-12T01:00:37.036Z,0
2018-07-12T01:01:45.946Z,0
2018-07-12T01:02:54.589Z,0
2018-07-12T01:04:03.242Z,0
2018-07-12T01:05:11.885Z,0
2018-07-12T01:06:20.529Z,0
2018-07-12T01:07:29.171Z,0
2018-07-12T01:08:37.812Z,0
2018-07-12T01:09:46.462Z,0
2018-07-12T01:10:55.109Z,0
2018-07-12T01:12:03.756Z,0
2018-07-12T01:13:12.399Z,0
2018-07-12T01:14:21.311Z,0
2018-07-12T01:15:30.212Z,0
2018-07-12T01:16:38.857Z,0
2018-07-12T01:17:47.527Z,0
2018-07-12T01:18:56.147Z,0
2018-07-12T01:20:05.060Z,0
2018-07-12T01:21:13.707Z,0
2018-07-12T01:22:22.343Z,0
2018-07-12T01:23:30.990Z,0
2018-07-12T01:24:39.637Z,0
2018-07-12T01:25:48.284Z,0
2018-07-12T01:26:56.930Z,0
2018-07-12T01:28:06.092Z,0
2018-07-12T01:29:15.004Z,0
2018-07-12T01:30:23.918Z,0
2018-07-12T01:31:32.577Z,0
2018-07-12T01:32:41.214Z,0
2018-07-12T01:33:49.863Z,0
2018-07-12T01:34:58.503Z,0
2018-07-12T01:36:07.188Z,0
2018-07-12T01:37:15.797Z,0
2018-07-12T01:38:24.445Z,0
2018-07-12T01:39:33.089Z,0
2018-07-12T01:40:41.746Z,0
2018-07-12T01:41:50.385Z,0
2018-07-12T01:42:59.024Z,0
2018-07-12T01:44:07.667Z,0
2018-07-12T01:45:16.310Z,0
2018-07-12T01:46:24.963Z,0
2018-07-12T01:47:33.604Z,0
2018-07-12T01:48:42.522Z,0
2018-07-12T01:49:51.157Z,0
2018-07-12T01:50:59.811Z,0
2018-07-12T01:52:08.722Z,0
2018-07-12T01:53:17.369Z,0
2018-07-12T01:54:26.004Z,0
2018-07-12T01:55:34.656Z,0
2018-07-12T01:56:43.299Z,0
2018-07-12T01:57:51.946Z,0
2018-07-12T01:59:00.586Z,0
2018-07-12T02:00:09.231Z,0
2018-07-12T02:01:17.882Z,0
2018-07-12T02:02:26.527Z,0
2018-07-12T02:03:35.176Z,0
2018-07-12T02:04:44.080Z,0
2018-07-12T02:05:52.995Z,0
2018-07-12T02:07:01.638Z,0
2018-07-12T02:08:10.301Z,0
2018-07-12T02:09:18.930Z,0
2018-07-12T02:10:27.576Z,0
2018-07-12T02:11:36.219Z,0
2018-07-12T02:12:44.874Z,0
2018-07-12T02:13:53.509Z,0
2018-07-12T02:15:02.460Z,0
2018-07-12T02:16:11.108Z,0
2018-07-12T02:17:19.745Z,0
2018-07-12T02:18:28.393Z,0
2018-07-12T02:19:37.044Z,0
2018-07-12T02:20:45.686Z,0
2018-07-12T02:21:54.341Z,0
2018-07-12T02:23:02.970Z,0
2018-07-12T02:24:11.622Z,0
2018-07-12T02:25:20.271Z,0
2018-07-12T02:26:29.189Z,0
2018-07-12T02:27:37.896Z,0
2018-07-12T02:28:46.474Z,0
2018-07-12T02:29:55.112Z,0
2018-07-12T02:31:03.771Z,0
2018-07-12T02:32:12.668Z,0
2018-07-12T02:33:21.590Z,0
2018-07-12T02:34:30.500Z,0
2018-07-12T02:35:39.416Z,0
2018-07-12T02:36:48.059Z,0
2018-07-12T02:37:56.703Z,0
2018-07-12T02:39:05.622Z,0
2018-07-12T02:40:14.275Z,0
2018-07-12T02:41:22.929Z,0
2018-07-12T02:42:31.580Z,0
2018-07-12T02:43:40.227Z,0
2018-07-12T02:44:49.128Z,0
2018-07-12T02:45:57.783Z,0
2018-07-12T02:47:06.428Z,0
2018-07-12T02:48:15.080Z,0
2018-07-12T02:49:23.721Z,0
2018-07-12T02:50:32.380Z,0
2018-07-12T02:51:41.300Z,0
2018-07-12T02:52:49.949Z,0
2018-07-12T02:53:58.858Z,0
2018-07-12T02:55:07.506Z,0
2018-07-12T02:56:16.156Z,0
2018-07-12T02:57:24.808Z,0
2018-07-12T02:58:33.455Z,0
2018-07-12T02:59:42.091Z,0
2018-07-12T03:00:50.746Z,0
2018-07-12T03:01:59.389Z,0
2018-07-12T03:03:08.044Z,0
2018-07-12T03:04:16.682Z,0
2018-07-12T03:05:25.336Z,0
2018-07-12T03:06:34.241Z,0
2018-07-12T03:07:42.898Z,0
2018-07-12T03:08:52.075Z,0
2018-07-12T03:10:00.982Z,0
2018-07-12T03:11:09.906Z,0
2018-07-12T03:12:18.840Z,0
2018-07-12T03:13:27.482Z,0
2018-07-12T03:14:36.396Z,0
2018-07-12T03:15:45.386Z,0
2018-07-12T03:16:54.507Z,0
2018-07-12T03:18:03.430Z,0
2018-07-12T03:19:12.073Z,0
2018-07-12T03:20:20.721Z,5
2018-07-12T03:21:29.887Z,5
2018-07-12T03:22:38.539Z,5
2018-07-12T03:23:47.193Z,5
2018-07-12T03:24:56.099Z,5
2018-07-12T03:26:04.998Z,5
2018-07-12T03:27:13.649Z,5
2018-07-12T03:28:22.290Z,5
2018-07-12T03:29:30.938Z,5
2018-07-12T03:30:39.581Z,5
2018-07-12T03:31:48.233Z,10
2018-07-12T03:32:57.144Z,10
2018-07-12T03:34:05.790Z,10
2018-07-12T03:35:14.438Z,10
2018-07-12T03:36:23.337Z,10
2018-07-12T03:37:31.982Z,10
2018-07-12T03:38:40.628Z,10
2018-07-12T03:39:49.276Z,15
2018-07-12T03:40:57.915Z,15
2018-07-12T03:42:06.826Z,15
2018-07-12T03:43:15.475Z,15
2018-07-12T03:44:24.119Z,20
2018-07-12T03:45:32.762Z,20
2018-07-12T03:46:41.408Z,20
2018-07-12T03:47:50.052Z,20
2018-07-12T03:48:58.700Z,20
2018-07-12T03:50:07.342Z,25
2018-07-12T03:51:15.988Z,25
2018-07-12T03:52:24.635Z,25
2018-07-12T03:53:33.278Z,30
2018-07-12T03:54:42.195Z,30
2018-07-12T03:55:50.840Z,30
2018-07-12T03:56:59.482Z,30
2018-07-12T03:58:08.486Z,35
2018-07-12T03:59:17.055Z,35
2018-07-12T04:00:25.703Z,35
2018-07-12T04:01:34.346Z,35
2018-07-12T04:02:42.985Z,40
2018-07-12T04:03:51.899Z,40
2018-07-12T04:05:00.544Z,40
2018-07-12T04:06:09.191Z,40
2018-07-12T04:07:17.834Z,45
2018-07-12T04:08:26.740Z,45
2018-07-12T04:09:35.650Z,50
2018-07-12T04:10:44.300Z,50
2018-07-12T04:11:52.947Z,55
2018-07-12T04:13:01.589Z,60
2018-07-12T04:14:10.233Z,60
2018-07-12T04:15:18.874Z,65
2018-07-12T04:16:27.528Z,65
2018-07-12T04:17:36.166Z,65
2018-07-12T04:18:44.808Z,70
2018-07-12T04:19:53.708Z,65
2018-07-12T04:21:02.365Z,65
2018-07-12T04:22:11.001Z,65
2018-07-12T04:23:19.647Z,65
2018-07-12T04:24:28.292Z,65
2018-07-12T04:25:36.943Z,65
2018-07-12T04:26:45.584Z,65
2018-07-12T04:27:54.224Z,65
2018-07-12T04:29:02.866Z,65
2018-07-12T04:30:11.511Z,65
2018-07-12T04:31:20.164Z,70
2018-07-12T04:32:28.801Z,70
2018-07-12T04:33:37.724Z,75
2018-07-12T04:34:46.451Z,80
2018-07-12T04:35:55.020Z,80
2018-07-12T04:37:03.922Z,85
2018-07-12T04:38:12.572Z,85
2018-07-12T04:39:21.206Z,85
2018-07-12T04:40:29.863Z,90
2018-07-12T04:41:38.504Z,90
2018-07-12T04:42:47.417Z,90
2018-07-12T04:43:56.053Z,95
2018-07-12T04:45:04.958Z,90
2018-07-12T04:46:13.605Z,90
2018-07-12T04:47:22.251Z,90
2018-07-12T04:48:30.897Z,95
2018-07-12T04:49:39.532Z,95
2018-07-12T04:50:48.187Z,95
2018-07-12T04:51:56.829Z,100
2018-07-12T04:53:05.748Z,105
2018-07-12T04:54:14.394Z,105
2018-07-12T04:55:23.309Z,105
2018-07-12T04:56:31.949Z,105
2018-07-12T04:57:40.603Z,105
2018-07-12T04:58:49.239Z,105
2018-07-12T04:59:57.888Z,110
2018-07-12T05:01:06.803Z,110
2018-07-12T05:02:15.459Z,115
2018-07-12T05:03:24.103Z,115
2018-07-12T05:04:32.748Z,110
2018-07-12T05:05:41.654Z,115
2018-07-12T05:06:50.299Z,115
2018-07-12T05:07:58.952Z,115
2018-07-12T05:09:07.591Z,120
2018-07-12T05:10:16.240Z,120
2018-07-12T05:11:24.875Z,120
2018-07-12T05:12:33.526Z,125
2018-07-12T05:13:42.173Z,125
2018-07-12T05:14:50.815Z,125
2018-07-12T05:15:59.719Z,125
2018-07-12T05:17:08.374Z,130
2018-07-12T05:18:17.013Z,130
2018-07-12T05:19:25.661Z,130
2018-07-12T05:20:34.301Z,135
2018-07-12T05:21:42.951Z,135
2018-07-12T05:22:51.858Z,135
2018-07-12T05:24:00.502Z,135
2018-07-12T05:25:09.150Z,140
2018-07-12T05:26:18.057Z,140
2018-07-12T05:27:26.703Z,140
2018-07-12T05:28:35.353Z,140
2018-07-12T05:29:44.005Z,140
2018-07-12T05:30:53.076Z,140
2018-07-12T05:32:01.913Z,140
2018-07-12T05:33:10.557Z,145
2018-07-12T05:34:19.475Z,140
2018-07-12T05:35:28.122Z,145
2018-07-12T05:36:36.766Z,145
2018-07-12T05:37:45.409Z,145
2018-07-12T05:38:54.081Z,150
2018-07-12T05:40:02.704Z,150
2018-07-12T05:41:11.354Z,155
2018-07-12T05:42:19.996Z,155
2018-07-12T05:43:28.641Z,155
2018-07-12T05:44:37.556Z,160
2018-07-12T05:45:46.202Z,155
2018-07-12T05:46:54.848Z,155
2018-07-12T05:48:03.757Z,160
2018-07-12T05:49:12.410Z,160
2018-07-12T05:50:21.053Z,160
2018-07-12T05:51:29.698Z,165
2018-07-12T05:52:38.606Z,160
2018-07-12T05:53:47.258Z,165
2018-07-12T05:54:55.900Z,165
2018-07-12T05:56:04.548Z,170
2018-07-12T05:57:13.449Z,175
2018-07-12T05:58:22.097Z,175
2018-07-12T05:59:30.743Z,180
2018-07-12T06:00:39.390Z,190
2018-07-12T06:01:48.039Z,190
2018-07-12T06:02:56.795Z,200
2018-07-12T06:04:05.325Z,200
2018-07-12T06:05:13.972Z,215
2018-07-12T06:06:22.623Z,215
2018-07-12T06:07:31.268Z,210
2018-07-12T06:08:39.915Z,165
2018-07-12T06:09:48.562Z,185
2018-07-12T06:10:57.208Z,185
2018-07-12T06:12:05.859Z,180
2018-07-12T06:13:14.848Z,190
2018-07-12T06:14:23.471Z,185
2018-07-12T06:15:32.119Z,185
2018-07-12T06:16:40.767Z,185
2018-07-12T06:17:49.420Z,190
2018-07-12T06:18:58.523Z,185
2018-07-12T06:20:07.379Z,190
2018-07-12T06:21:16.021Z,185
2018-07-12T06:22:24.665Z,190
2018-07-12T06:23:33.313Z,190
2018-07-12T06:24:42.747Z,190
2018-07-12T06:25:51.352Z,190
2018-07-12T06:27:00.063Z,190
2018-07-12T06:28:08.709Z,190
2018-07-12T06:29:18.604Z,195
2018-07-12T06:30:27.246Z,200
2018-07-12T06:31:35.894Z,200
2018-07-12T06:32:44.540Z,205
2018-07-12T06:33:53.191Z,220
2018-07-12T06:35:01.843Z,215
2018-07-12T06:36:10.495Z,190
2018-07-12T06:37:19.226Z,180
2018-07-12T06:38:27.788Z,170
2018-07-12T06:39:36.435Z,210
2018-07-12T06:40:45.084Z,185
2018-07-12T06:41:53.982Z,200
2018-07-12T06:43:02.890Z,205
2018-07-12T06:44:11.808Z,210
2018-07-12T06:45:20.717Z,160
2018-07-12T06:46:29.363Z,195
2018-07-12T06:47:38.018Z,195
2018-07-12T06:48:46.657Z,195
2018-07-12T06:49:55.569Z,195
2018-07-12T06:51:04.485Z,195
2018-07-12T06:52:13.128Z,190
2018-07-12T06:53:21.778Z,200
2018-07-12T06:54:30.427Z,190
2018-07-12T06:55:39.337Z,195
2018-07-12T06:56:47.988Z,195
2018-07-12T06:57:56.629Z,195
2018-07-12T06:59:05.275Z,195
2018-07-12T07:00:14.187Z,195
2018-07-12T07:01:22.838Z,195
2018-07-12T07:02:31.480Z,200
2018-07-12T07:03:40.126Z,200
2018-07-12T07:04:48.776Z,195
2018-07-12T07:05:57.451Z,195
2018-07-12T07:07:06.336Z,195
2018-07-12T07:08:15.249Z,200
2018-07-12T07:09:23.898Z,195
2018-07-12T07:10:32.813Z,195
2018-07-12T07:11:41.458Z,195
2018-07-12T07:12:50.106Z,195
2018-07-12T07:13:58.749Z,195
2018-07-12T07:15:07.394Z,190
2018-07-12T07:16:16.050Z,190
2018-07-12T07:17:24.960Z,190
2018-07-12T07:18:33.613Z,190
2018-07-12T07:19:42.252Z,190
2018-07-12T07:20:50.906Z,190
2018-07-12T07:21:59.549Z,190
2018-07-12T07:23:08.464Z,190
2018-07-12T07:24:17.101Z,190
2018-07-12T07:25:26.021Z,190
2018-07-12T07:26:34.668Z,185
2018-07-12T07:27:43.318Z,190
2018-07-12T07:28:51.955Z,190
2018-07-12T07:30:00.606Z,190
2018-07-12T07:31:09.258Z,185
2018-07-12T07:32:17.936Z,185
2018-07-12T07:33:26.622Z,185
2018-07-12T07:34:35.198Z,190
2018-07-12T07:35:43.960Z,185
2018-07-12T07:36:52.944Z,185
2018-07-12T07:38:01.603Z,185
2018-07-12T07:39:10.240Z,190
2018-07-12T07:40:18.890Z,190
2018-07-12T07:41:27.534Z,190
2018-07-12T07:42:36.195Z,190
2018-07-12T07:43:44.830Z,195
2018-07-12T07:44:53.484Z,195
2018-07-12T07:46:02.128Z,195
2018-07-12T07:47:10.789Z,195
2018-07-12T07:48:19.697Z,195
2018-07-12T07:49:28.343Z,195
2018-07-12T07:50:36.991Z,195
2018-07-12T07:51:45.638Z,195
2018-07-12T07:52:54.480Z,195
2018-07-12T07:54:03.124Z,195
2018-07-12T07:55:11.777Z,195
2018-07-12T07:56:20.416Z,195
2018-07-12T07:57:29.072Z,195
2018-07-12T07:58:37.717Z,195
2018-07-12T07:59:46.372Z,195
2018-07-12T08:00:55.009Z,195
2018-07-12T08:02:03.931Z,190
2018-07-12T08:03:12.580Z,190
2018-07-12T08:04:21.225Z,190
2018-07-12T08:05:29.864Z,190
2018-07-12T08:06:38.512Z,190
2018-07-12T08:07:47.166Z,190
2018-07-12T08:08:55.809Z,190
2018-07-12T08:10:04.455Z,190
2018-07-12T08:11:13.636Z,190
2018-07-12T08:12:22.286Z,190
2018-07-12T08:13:31.222Z,190
2018-07-12T08:14:39.872Z,190
2018-07-12T08:15:48.527Z,190
2018-07-12T08:16:57.179Z,205
2018-07-12T08:18:05.829Z,190
2018-07-12T08:19:14.735Z,190
2018-07-12T08:20:23.387Z,190
2018-07-12T08:21:32.034Z,190
2018-07-12T08:22:40.688Z,190
2018-07-12T08:23:49.411Z,190
2018-07-12T08:24:58.062Z,190
2018-07-12T08:26:06.711Z,190
2018-07-12T08:27:15.440Z,190
2018-07-12T08:28:24.089Z,190
2018-07-12T08:29:32.733Z,190
2018-07-12T08:30:41.646Z,190
2018-07-12T08:31:50.295Z,190
2018-07-12T08:32:58.953Z,190
2018-07-12T08:34:07.597Z,190
2018-07-12T08:35:16.246Z,195
2018-07-12T08:36:24.894Z,195
2018-07-12T08:37:33.546Z,195
2018-07-12T08:38:42.193Z,195
2018-07-12T08:39:50.912Z,200
2018-07-12T08:40:59.561Z,195
2018-07-12T08:42:08.297Z,195
2018-07-12T08:43:17.030Z,200
2018-07-12T08:44:26.091Z,200
2018-07-12T08:45:34.755Z,200
2018-07-12T08:46:43.780Z,200
2018-07-12T08:47:52.536Z,200
2018-07-12T08:49:01.509Z,200
2018-07-12T08:50:10.160Z,195
2018-07-12T08:51:18.807Z,200
2018-07-12T08:52:27.732Z,200
2018-07-12T08:53:36.379Z,200
2018-07-12T08:54:45.110Z,200
2018-07-12T08:55:53.675Z,205
2018-07-12T08:57:02.329Z,200
2018-07-12T08:58:10.998Z,200
2018-07-12T08:59:19.691Z,200
2018-07-12T09:00:28.339Z,200
2018-07-12T09:01:36.993Z,200
2018-07-12T09:02:46.146Z,200
2018-07-12T09:03:54.732Z,200
2018-07-12T09:05:03.387Z,200
2018-07-12T09:06:12.038Z,200
2018-07-12T09:07:20.693Z,200
2018-07-12T09:08:29.337Z,200
2018-07-12T09:09:37.996Z,200
2018-07-12T09:10:46.637Z,215
2018-07-12T09:11:55.292Z,215
2018-07-12T09:13:04.207Z,215
2018-07-12T09:14:12.866Z,225
2018-07-12T09:15:21.621Z,170
2018-07-12T09:16:30.273Z,195
2018-07-12T09:17:38.924Z,255
2018-07-12T09:18:47.880Z,210
2018-07-12T09:19:56.529Z,190
2018-07-12T09:21:05.175Z,245
2018-07-12T09:22:13.821Z,245
2018-07-12T09:23:22.475Z,250
2018-07-12T09:24:31.132Z,230
2018-07-12T09:25:39.777Z,220
2018-07-12T09:26:48.442Z,210
2018-07-12T09:27:57.346Z,210
2018-07-12T09:29:06.391Z,210
2018-07-12T09:30:14.971Z,210
2018-07-12T09:31:23.632Z,215
2018-07-12T09:32:32.277Z,220
2018-07-12T09:33:41.197Z,225
2018-07-12T09:34:49.919Z,230
2018-07-12T09:35:58.512Z,240
2018-07-12T09:37:07.248Z,240
2018-07-12T09:38:15.808Z,230
2018-07-12T09:39:24.466Z,190
2018-07-12T09:40:33.120Z,220
2018-07-12T09:41:41.829Z,230
2018-07-12T09:42:50.471Z,255
2018-07-12T09:43:59.076Z,310
2018-07-12T09:45:07.987Z,335
2018-07-12T09:46:16.910Z,330
2018-07-12T09:47:25.905Z,305
2018-07-12T09:48:34.507Z,295
2018-07-12T09:49:43.423Z,235
2018-07-12T09:50:52.085Z,240
2018-07-12T09:52:00.728Z,220
2018-07-12T09:53:09.379Z,265
2018-07-12T09:54:18.032Z,285
2018-07-12T09:55:27.007Z,305
2018-07-12T09:56:35.682Z,315
2018-07-12T09:57:44.254Z,320
2018-07-12T09:58:52.904Z,280
2018-07-12T10:00:01.826Z,305
2018-07-12T10:01:10.856Z,280
2018-07-12T10:02:19.451Z,285
2018-07-12T10:03:28.637Z,290
2018-07-12T10:04:37.288Z,245
2018-07-12T10:05:46.204Z,210
2018-07-12T10:06:54.862Z,280
2018-07-12T10:08:03.509Z,270
2018-07-12T10:09:12.172Z,295
2018-07-12T10:10:21.094Z,285
2018-07-12T10:11:29.747Z,275
2018-07-12T10:12:38.396Z,260
2018-07-12T10:13:47.057Z,215
2018-07-12T10:14:55.707Z,215
2018-07-12T10:16:04.618Z,215
2018-07-12T10:17:13.267Z,225
2018-07-12T10:18:21.913Z,325
2018-07-12T10:19:30.577Z,360
2018-07-12T10:20:39.225Z,350
2018-07-12T10:21:47.881Z,345
2018-07-12T10:22:56.521Z,325
2018-07-12T10:24:05.183Z,310
2018-07-12T10:25:13.821Z,275
2018-07-12T10:26:22.479Z,255
2018-07-12T10:27:31.121Z,270
2018-07-12T10:28:39.782Z,325
2018-07-12T10:29:48.444Z,295
2018-07-12T10:30:57.082Z,270
2018-07-12T10:32:05.726Z,200
2018-07-12T10:33:14.383Z,190
2018-07-12T10:34:23.040Z,240
2018-07-12T10:35:31.693Z,275
2018-07-12T10:36:40.345Z,285
2018-07-12T10:37:48.989Z,290
2018-07-12T10:38:57.643Z,275
2018-07-12T10:40:06.290Z,265
2018-07-12T10:41:14.951Z,240
2018-07-12T10:42:23.594Z,275
2018-07-12T10:43:32.248Z,280
2018-07-12T10:44:41.261Z,275
2018-07-12T10:45:49.921Z,305
2018-07-12T10:46:58.562Z,325
2018-07-12T10:48:07.217Z,305
2018-07-12T10:49:16.131Z,330
2018-07-12T10:50:24.791Z,305
2018-07-12T10:51:33.441Z,280
2018-07-12T10:52:42.089Z,280
2018-07-12T10:53:50.738Z,360
2018-07-12T10:54:59.389Z,295
2018-07-12T10:56:08.055Z,305
2018-07-12T10:57:16.703Z,315
2018-07-12T10:58:25.359Z,325
2018-07-12T10:59:34.003Z,390
2018-07-12T11:00:42.665Z,345
2018-07-12T11:01:51.313Z,270
2018-07-12T11:02:59.970Z,350
2018-07-12T11:04:08.615Z,300
2018-07-12T11:05:17.270Z,315
2018-07-12T11:06:25.919Z,340
2018-07-12T11:07:34.573Z,325
2018-07-12T11:08:43.223Z,270
2018-07-12T11:09:51.901Z,325
2018-07-12T11:11:00.533Z,255
2018-07-12T11:12:09.188Z,245
2018-07-12T11:13:18.124Z,215
2018-07-12T11:14:27.131Z,180
2018-07-12T11:15:35.686Z,175
2018-07-12T11:16:44.337Z,165
2018-07-12T11:17:52.994Z,175
2018-07-12T11:19:01.646Z,185
2018-07-12T11:20:10.566Z,195
2018-07-12T11:21:19.219Z,200
2018-07-12T11:22:27.875Z,220
2018-07-12T11:23:36.783Z,230
2018-07-12T11:24:45.965Z,245
2018-07-12T11:25:54.615Z,260
2018-07-12T11:27:03.274Z,320
2018-07-12T11:28:11.948Z,400
2018-07-12T11:29:20.576Z,410
2018-07-12T11:30:29.231Z,390
2018-07-12T11:31:37.882Z,370
2018-07-12T11:32:46.536Z,340
2018-07-12T11:33:55.719Z,320
2018-07-12T11:35:04.364Z,285
2018-07-12T11:36:13.334Z,205
2018-07-12T11:37:21.948Z,180
2018-07-12T11:38:30.867Z,165
2018-07-12T11:39:39.841Z,170
2018-07-12T11:40:48.501Z,170
2018-07-12T11:41:57.156Z,160
2018-07-12T11:43:06.070Z,155
2018-07-12T11:44:14.723Z,160
2018-07-12T11:45:23.370Z,160
2018-07-12T11:46:32.026Z,165
2018-07-12T11:47:40.676Z,175
2018-07-12T11:48:49.330Z,190
2018-07-12T11:49:57.990Z,270
2018-07-12T11:51:06.639Z,300
2018-07-12T11:52:15.289Z,330
2018-07-12T11:53:23.944Z,335
2018-07-12T11:54:32.598Z,340
2018-07-12T11:55:41.245Z,340
2018-07-12T11:56:49.899Z,335
2018-07-12T11:57:58.554Z,325
2018-07-12T11:59:07.478Z,330
2018-07-12T12:00:16.126Z,340
2018-07-12T12:01:24.849Z,335
2018-07-12T12:02:33.432Z,330
2018-07-12T12:03:42.101Z,325
2018-07-12T12:04:50.747Z,320
2018-07-12T12:05:59.394Z,315
2018-07-12T12:07:08.048Z,320
2018-07-12T12:08:16.701Z,335
2018-07-12T12:09:25.363Z,345
2018-07-12T12:10:34.060Z,355
2018-07-12T12:11:42.663Z,360
2018-07-12T12:12:51.361Z,375
2018-07-12T12:13:59.969Z,375
2018-07-12T12:15:08.621Z,380
2018-07-12T12:16:17.277Z,385
2018-07-12T12:17:25.921Z,405
2018-07-12T12:18:34.581Z,410
2018-07-12T12:19:43.233Z,400
2018-07-12T12:20:51.887Z,350
2018-07-12T12:22:00.792Z,310
2018-07-12T12:23:09.450Z,290
2018-07-12T12:24:18.110Z,290
2018-07-12T12:25:26.767Z,240
2018-07-12T12:26:35.691Z,175
2018-07-12T12:27:44.339Z,165
2018-07-12T12:28:52.997Z,175
2018-07-12T12:30:01.641Z,185
2018-07-12T12:31:10.308Z,190
2018-07-12T12:32:18.948Z,190
2018-07-12T12:33:27.638Z,200
2018-07-12T12:34:36.522Z,215
2018-07-12T12:35:45.184Z,230
2018-07-12T12:36:53.827Z,225
2018-07-12T12:38:02.487Z,215
2018-07-12T12:39:11.133Z,215
2018-07-12T12:40:19.799Z,230
2018-07-12T12:41:28.449Z,245
2018-07-12T12:42:37.097Z,250
2018-07-12T12:43:45.749Z,240
2018-07-12T12:44:54.669Z,225
2018-07-12T12:46:03.331Z,215
2018-07-12T12:47:11.977Z,205
2018-07-12T12:48:20.633Z,200
2018-07-12T12:49:29.277Z,215
2018-07-12T12:50:37.941Z,240
2018-07-12T12:51:46.590Z,270
2018-07-12T12:52:55.253Z,290
2018-07-12T12:54:03.897Z,285
2018-07-12T12:55:12.562Z,270
2018-07-12T12:56:21.216Z,255
2018-07-12T12:57:29.872Z,235
2018-07-12T12:58:38.516Z,230
2018-07-12T12:59:47.173Z,230
2018-07-12T13:00:55.828Z,230
2018-07-12T13:02:04.482Z,230
2018-07-12T13:03:13.163Z,225
2018-07-12T13:04:21.811Z,220
2018-07-12T13:05:30.463Z,220
2018-07-12T13:06:39.116Z,225
2018-07-12T13:07:47.772Z,225
2018-07-12T13:08:56.419Z,220
2018-07-12T13:10:05.071Z,230
2018-07-12T13:11:13.725Z,225
2018-07-12T13:12:22.382Z,210
2018-07-12T13:13:31.033Z,200
2018-07-12T13:14:39.713Z,190
2018-07-12T13:15:48.667Z,200
2018-07-12T13:16:57.555Z,200
2018-07-12T13:18:06.477Z,200
2018-07-12T13:19:15.129Z,220
2018-07-12T13:20:23.775Z,250
2018-07-12T13:21:32.427Z,265
2018-07-12T13:22:41.084Z,260
2018-07-12T13:23:49.738Z,260
2018-07-12T13:24:58.652Z,270
2018-07-12T13:26:07.370Z,250
2018-07-12T13:27:15.974Z,250
2018-07-12T13:28:24.608Z,300
2018-07-12T13:29:33.260Z,265
2018-07-12T13:30:41.908Z,260
2018-07-12T13:31:50.572Z,265
2018-07-12T13:32:59.217Z,270
2018-07-12T13:34:08.405Z,210
2018-07-12T13:35:17.060Z,185
2018-07-12T13:36:25.711Z,200
2018-07-12T13:37:34.395Z,195
2018-07-12T13:38:43.023Z,190
2018-07-12T13:39:51.945Z,185
2018-07-12T13:41:01.054Z,180
2018-07-12T13:42:09.859Z,175
2018-07-12T13:43:18.512Z,170
2018-07-12T13:44:27.170Z,170
2018-07-12T13:45:35.820Z,180
2018-07-12T13:46:44.525Z,205
2018-07-12T13:47:53.125Z,225
2018-07-12T13:49:01.782Z,250
2018-07-12T13:50:10.431Z,260
2018-07-12T13:51:19.085Z,275
2018-07-12T13:52:27.737Z,340
2018-07-12T13:53:36.396Z,285
2018-07-12T13:54:45.600Z,275
2018-07-12T13:55:54.800Z,270
2018-07-12T13:57:03.444Z,355
2018-07-12T13:58:12.113Z,355
2018-07-12T13:59:20.749Z,345
2018-07-12T14:00:29.401Z,255
2018-07-12T14:01:38.052Z,245
2018-07-12T14:02:46.707Z,250
2018-07-12T14:03:55.359Z,260
2018-07-12T14:05:04.049Z,265
2018-07-12T14:06:13.324Z,360
2018-07-12T14:07:21.979Z,365
2018-07-12T14:08:30.627Z,275
2018-07-12T14:09:39.283Z,360
2018-07-12T14:10:47.934Z,340
2018-07-12T14:11:56.853Z,320
2018-07-12T14:13:05.508Z,305
2018-07-12T14:14:14.158Z,195
2018-07-12T14:15:22.808Z,170
2018-07-12T14:16:31.461Z,190
2018-07-12T14:17:40.121Z,155
2018-07-12T14:18:49.041Z,155
2018-07-12T14:19:57.696Z,145
2018-07-12T14:21:06.346Z,145
2018-07-12T14:22:15.003Z,150
2018-07-12T14:23:23.657Z,155
2018-07-12T14:24:32.314Z,155
2018-07-12T14:25:40.960Z,160
2018-07-12T14:26:49.616Z,160
2018-07-12T14:27:58.269Z,170
2018-07-12T14:29:07.191Z,190
2018-07-12T14:30:15.841Z,215
2018-07-12T14:31:24.514Z,230
2018-07-12T14:32:33.707Z,210
2018-07-12T14:33:42.365Z,205
2018-07-12T14:34:51.024Z,215
2018-07-12T14:35:59.672Z,220
2018-07-12T14:37:08.327Z,225
2018-07-12T14:38:16.979Z,220
2018-07-12T14:39:25.901Z,225
2018-07-12T14:40:34.810Z,215
2018-07-12T14:41:43.463Z,185
2018-07-12T14:42:52.115Z,170
2018-07-12T14:44:00.774Z,165
2018-07-12T14:45:09.421Z,165
2018-07-12T14:46:18.083Z,170
2018-07-12T14:47:27.002Z,180
2018-07-12T14:48:35.658Z,190
2018-07-12T14:49:44.577Z,265
2018-07-12T14:50:53.229Z,275
2018-07-12T14:52:02.146Z,285
2018-07-12T14:53:10.795Z,210
2018-07-12T14:54:19.456Z,190
2018-07-12T14:55:28.110Z,185
2018-07-12T14:56:36.763Z,170
2018-07-12T14:57:45.409Z,165
2018-07-12T14:58:54.071Z,170
2018-07-12T15:00:02.721Z,175
2018-07-12T15:01:11.647Z,185
2018-07-12T15:02:20.574Z,195
2018-07-12T15:03:29.239Z,210
2018-07-12T15:04:37.884Z,225
2018-07-12T15:05:46.544Z,245
2018-07-12T15:06:55.186Z,280
2018-07-12T15:08:03.842Z,250
2018-07-12T15:09:12.987Z,190
2018-07-12T15:10:21.526Z,145
2018-07-12T15:11:30.182Z,125
2018-07-12T15:12:38.826Z,105
2018-07-12T15:13:47.482Z,85
2018-07-12T15:14:56.130Z,60
2018-07-12T15:16:04.803Z,55
2018-07-12T15:17:13.708Z,55
2018-07-12T15:18:22.368Z,65
2018-07-12T15:19:31.016Z,75
2018-07-12T15:20:39.678Z,90
2018-07-12T15:21:48.319Z,105
2018-07-12T15:22:57.496Z,105
2018-07-12T15:24:06.148Z,110
2018-07-12T15:25:14.812Z,125
2018-07-12T15:26:23.497Z,150
2018-07-12T15:27:32.110Z,165
2018-07-12T15:28:40.758Z,165
2018-07-12T15:29:49.413Z,170
2018-07-12T15:30:58.069Z,165
2018-07-12T15:32:06.717Z,165
2018-07-12T15:33:15.372Z,170
2018-07-12T15:34:24.015Z,165
2018-07-12T15:35:32.701Z,175
2018-07-12T15:36:41.333Z,160
2018-07-12T15:37:49.990Z,125
2018-07-12T15:38:58.630Z,95
2018-07-12T15:40:07.293Z,70
2018-07-12T15:41:15.945Z,60
2018-07-12T15:42:24.598Z,55
2018-07-12T15:43:33.240Z,70
2018-07-12T15:44:41.897Z,105
2018-07-12T15:45:50.825Z,130
2018-07-12T15:46:59.480Z,145
2018-07-12T15:48:08.192Z,135
2018-07-12T15:49:16.781Z,115
2018-07-12T15:50:25.434Z,95
2018-07-12T15:51:34.349Z,90
2018-07-12T15:52:43.020Z,95
2018-07-12T15:53:51.651Z,100
2018-07-12T15:55:00.319Z,100
2018-07-12T15:56:08.967Z,90
2018-07-12T15:57:17.629Z,75
2018-07-12T15:58:26.273Z,60
2018-07-12T15:59:34.929Z,55
2018-07-12T16:00:43.842Z,50
2018-07-12T16:01:52.501Z,50
2018-07-12T16:03:01.154Z,50
2018-07-12T16:04:09.799Z,50